Time;durP1;ratioP1;P1;durP2;ratioP2;P2;SDS_P1;SDS_P2;PMS_P1;PMS_P2;Temp;Humidity;BMP_temperature;BMP_pressure;BME280_temperature;BME280_humidity;BME280_pressure;Samples;Min_cycle;Max_cycle;Signal;HPM_P1;HPM_P2
2021/04/13 00:01:31;;;;;;;6.47;3.65;;;1.80;99.90;;;;;;3562003;40;20130;-63
2021/04/13 00:04:06;;;;;;;6.32;3.45;;;1.70;99.90;;;;;;3560967;40;20838;-62
2021/04/13 00:06:37;;;;;;;5.88;3.75;;;4.30;99.90;;;;;;3560862;40;20762;-62
2021/04/13 00:09:09;;;;;;;6.45;3.90;;;1.70;99.90;;;;;;3560657;40;20183;-62
2021/04/13 00:11:36;;;;;;;7.30;3.90;;;1.70;99.90;;;;;;3561423;40;20041;-62
2021/04/13 00:14:05;;;;;;;7.43;4.18;;;4.30;99.90;;;;;;3562513;40;20794;-62
2021/04/13 00:16:35;;;;;;;5.70;3.85;;;1.50;99.90;;;;;;3563824;40;20678;-62
2021/04/13 00:19:01;;;;;;;7.47;3.80;;;;;;;;;;3563178;40;20406;-62
2021/04/13 00:21:32;;;;;;;8.27;4.00;;;1.50;99.90;;;;;;3564880;40;20067;-64
2021/04/13 00:24:02;;;;;;;6.93;3.80;;;1.50;99.90;;;;;;3561144;40;20073;-64
2021/04/13 00:26:30;;;;;;;6.40;3.80;;;1.50;99.90;;;;;;3563723;40;20038;-64
2021/04/13 00:29:00;;;;;;;9.63;4.60;;;1.50;99.90;;;;;;3564212;40;20040;-62
2021/04/13 00:31:40;;;;;;;7.35;4.20;;;1.50;99.90;;;;;;3564110;40;20122;-62
2021/04/13 00:34:14;;;;;;;7.32;3.95;;;1.40;99.90;;;;;;3563262;40;20051;-62
2021/04/13 00:36:42;;;;;;;5.68;3.72;;;1.20;99.90;;;;;;3564215;40;20045;-62
2021/04/13 00:39:23;;;;;;;6.88;4.13;;;1.30;99.90;;;;;;3562620;40;20181;-62
2021/04/13 00:42:01;;;;;;;7.97;3.65;;;1.20;99.90;;;;;;3562850;40;20774;-63
2021/04/13 00:44:28;;;;;;;6.55;4.20;;;1.10;99.90;;;;;;3562839;40;20428;-63
2021/04/13 00:47:06;;;;;;;9.90;3.90;;;1.10;99.90;;;;;;3563717;40;20033;-63
2021/04/13 00:49:36;;;;;;;7.05;4.13;;;1.40;99.90;;;;;;3562191;40;20048;-63
2021/04/13 00:52:07;;;;;;;6.95;3.58;;;1.00;99.90;;;;;;3562901;40;20113;-63
2021/04/13 00:54:35;;;;;;;9.55;4.35;;;1.00;99.90;;;;;;3562082;40;20045;-63
2021/04/13 00:57:21;;;;;;;7.75;4.82;;;1.00;99.90;;;;;;3562187;40;20037;-63
2021/04/13 00:59:47;;;;;;;;;;;0.80;99.90;;;;;;3563118;40;20047;-62
2021/04/13 01:02:23;;;;;;;9.13;4.20;;;0.60;99.90;;;;;;3563893;40;19949;-62
2021/04/13 01:04:57;;;;;;;6.90;4.15;;;0.60;99.90;;;;;;3562989;40;20142;-62
2021/04/13 01:07:42;;;;;;;9.10;4.90;;;0.30;99.90;;;;;;3563562;40;20055;-62
2021/04/13 01:10:17;;;;;;;9.05;5.13;;;0.90;99.90;;;;;;3562465;40;20037;-63
2021/04/13 01:12:47;;;;;;;;;;;0.50;99.90;;;;;;3563598;40;20037;-63
2021/04/13 01:15:16;;;;;;;9.30;4.88;;;0.40;99.90;;;;;;3562847;40;19948;-62
2021/04/13 01:17:44;;;;;;;13.90;5.53;;;0.70;99.90;;;;;;3563278;40;20739;-62
2021/04/13 01:20:24;;;;;;;10.07;5.70;;;0.90;99.90;;;;;;3563587;40;20088;-64
2021/04/13 01:25:27;;;;;;;12.27;6.55;;;0.50;99.90;;;;;;3562119;40;20037;-63
2021/04/13 01:27:56;;;;;;;13.77;6.47;;;0.60;99.90;;;;;;3563401;40;20100;-64
2021/04/13 01:30:33;;;;;;;12.10;7.50;;;0.60;99.90;;;;;;3562272;40;20739;-64
2021/04/13 01:33:17;;;;;;;12.93;7.30;;;0.70;99.90;;;;;;3563016;40;20081;-64
2021/04/13 01:35:49;;;;;;;15.07;7.32;;;0.70;99.90;;;;;;3563161;40;20240;-64
2021/04/13 01:38:19;;;;;;;14.63;7.55;;;0.80;99.90;;;;;;3562004;40;20060;-63
2021/04/13 01:41:03;;;;;;;17.05;8.45;;;0.80;99.90;;;;;;3561661;40;20060;-64
2021/04/13 01:43:34;;;;;;;15.88;9.00;;;0.90;99.90;;;;;;3562567;40;20057;-64
2021/04/13 01:46:01;;;;;;;16.98;8.75;;;1.00;99.90;;;;;;3562570;40;20447;-63
2021/04/13 01:48:27;;;;;;;16.77;9.40;;;1.00;99.90;;;;;;3561820;40;20048;-64
2021/04/13 01:51:00;;;;;;;16.40;9.57;;;1.10;99.90;;;;;;3561970;40;20258;-63
2021/04/13 01:53:27;;;;;;;16.45;8.98;;;1.10;99.90;;;;;;3563131;40;20052;-64
2021/04/13 01:55:57;;;;;;;16.92;9.90;;;1.20;99.90;;;;;;3560532;40;20037;-63
2021/04/13 01:58:38;;;;;;;17.10;9.85;;;1.20;99.90;;;;;;3561241;40;20046;-64
2021/04/13 02:01:09;;;;;;;15.73;9.73;;;1.10;99.90;;;;;;3560766;40;20038;-64
2021/04/13 02:04:05;;;;;;;20.67;10.57;;;1.00;99.90;;;;;;3560043;40;20033;-64
2021/04/13 02:06:36;;;;;;;18.15;10.25;;;0.90;99.90;;;;;;3561716;40;20038;-64
2021/04/13 02:09:14;;;;;;;18.38;10.77;;;0.80;99.90;;;;;;3562224;40;20041;-63
2021/04/13 02:11:42;;;;;;;17.13;10.82;;;0.90;99.90;;;;;;3562112;40;20056;-64
2021/04/13 02:14:18;;;;;;;19.95;11.35;;;0.90;99.90;;;;;;3561768;40;20092;-64
2021/04/13 02:17:03;;;;;;;19.90;11.38;;;0.90;99.90;;;;;;3562008;40;20045;-64
2021/04/13 02:19:31;;;;;;;20.58;11.98;;;0.90;99.90;;;;;;3561323;40;20048;-64
2021/04/13 02:22:08;;;;;;;20.80;12.75;;;0.90;99.90;;;;;;3562613;40;20083;-64
2021/04/13 02:24:37;;;;;;;24.65;13.20;;;1.00;99.90;;;;;;3561662;40;20044;-64
2021/04/13 02:27:19;;;;;;;21.83;12.80;;;1.10;99.90;;;;;;3561758;40;20085;-64
2021/04/13 02:30:01;;;;;;;22.02;12.35;;;1.00;99.90;;;;;;3560678;40;20037;-63
2021/04/13 02:32:30;;;;;;;19.38;11.68;;;1.00;99.90;;;;;;3560963;40;20311;-62
2021/04/13 02:35:02;;;;;;;20.85;12.15;;;1.00;99.90;;;;;;3561388;40;20050;-63
2021/04/13 02:37:39;;;;;;;19.20;11.18;;;1.00;99.90;;;;;;3561314;40;20648;-63
2021/04/13 02:40:26;;;;;;;16.63;10.60;;;0.80;99.90;;;;;;3560889;40;20037;-62
2021/04/13 02:42:55;;;;;;;20.48;11.75;;;0.20;99.90;;;;;;3561683;40;20100;-63
2021/04/13 02:45:36;;;;;;;18.85;10.65;;;0.70;99.90;;;;;;3560967;40;20548;-63
2021/04/13 02:48:16;;;;;;;20.13;12.32;;;0.70;99.90;;;;;;3562207;40;20033;-62
2021/04/13 02:50:47;;;;;;;20.48;12.13;;;0.60;99.90;;;;;;3561279;40;20801;-62
2021/04/13 02:53:22;;;;;;;24.17;11.80;;;0.50;99.90;;;;;;3561507;40;20066;-62
2021/04/13 02:55:55;;;;;;;24.98;11.93;;;0.50;99.90;;;;;;3561740;40;20581;-62
2021/04/13 02:58:24;;;;;;;20.98;11.30;;;0.50;99.90;;;;;;3561070;40;20763;-62
2021/04/13 03:00:54;;;;;;;20.98;12.30;;;0.50;99.90;;;;;;3561141;40;20055;-62
2021/04/13 03:03:24;;;;;;;20.25;11.65;;;0.50;99.90;;;;;;3562501;40;20037;-62
2021/04/13 03:05:52;;;;;;;19.85;12.55;;;0.50;99.90;;;;;;3561979;40;20029;-62
2021/04/13 03:08:19;;;;;;;22.08;12.52;;;0.40;99.90;;;;;;3550544;40;20095;-62
2021/04/13 03:10:49;;;;;;;18.98;12.32;;;0.40;99.90;;;;;;3561679;40;20045;-62
2021/04/13 03:13:18;;;;;;;22.23;12.63;;;0.40;99.90;;;;;;3562635;40;20143;-62
2021/04/13 03:15:54;;;;;;;21.85;12.45;;;0.40;99.90;;;;;;3562949;40;20060;-62
2021/04/13 03:18:25;;;;;;;22.88;13.30;;;0.40;99.90;;;;;;3564897;40;20047;-63
2021/04/13 03:20:54;;;;;;;27.13;14.15;;;0.40;99.90;;;;;;3561667;40;20052;-62
2021/04/13 03:23:23;;;;;;;22.90;13.38;;;0.50;99.90;;;;;;3561606;40;20089;-62
2021/04/13 03:25:57;;;;;;;25.20;14.00;;;0.50;99.90;;;;;;3563387;40;20714;-64
2021/04/13 03:28:28;;;;;;;31.50;14.52;;;0.50;99.90;;;;;;3563393;40;20186;-63
2021/04/13 03:30:54;;;;;;;26.58;14.52;;;0.50;99.90;;;;;;3561504;40;20041;-64
2021/04/13 03:33:28;;;;;;;31.60;15.70;;;0.50;99.90;;;;;;3561731;40;20666;-64
2021/04/13 03:36:15;;;;;;;28.92;14.70;;;0.50;99.90;;;;;;3561877;40;20044;-64
2021/04/13 03:38:45;;;;;;;29.83;15.48;;;0.50;99.90;;;;;;3560958;40;20049;-64
2021/04/13 03:41:17;;;;;;;28.42;14.93;;;0.50;99.90;;;;;;3560023;40;20059;-64
2021/04/13 03:43:43;;;;;;;30.45;14.07;;;0.50;99.90;;;;;;3563915;40;20044;-64
2021/04/13 03:46:11;;;;;;;28.55;14.55;;;0.50;99.90;;;;;;3561309;40;20138;-63
2021/04/13 03:48:38;;;;;;;25.52;14.68;;;0.40;99.90;;;;;;3563388;40;20047;-62
2021/04/13 03:51:11;;;;;;;34.38;15.35;;;0.40;99.90;;;;;;3565862;40;20035;-62
2021/04/13 03:53:46;;;;;;;29.80;15.55;;;0.40;99.90;;;;;;3562104;40;20026;-62
2021/04/13 03:56:19;;;;;;;31.88;15.68;;;0.40;99.90;;;;;;3560093;40;20041;-63
2021/04/13 03:58:50;;;;;;;30.77;15.95;;;0.40;99.90;;;;;;3562226;40;20049;-63
2021/04/13 04:01:20;;;;;;;34.65;18.55;;;0.30;99.90;;;;;;3561806;40;20828;-63
2021/04/13 04:03:59;;;;;;;37.40;16.35;;;0.40;99.90;;;;;;3562607;40;20724;-63
2021/04/13 04:06:47;;;;;;;30.95;16.98;;;0.40;99.90;;;;;;3561679;40;20040;-63
2021/04/13 04:09:21;;;;;;;36.40;19.05;;;0.50;99.90;;;;;;3561681;40;20093;-63
2021/04/13 04:11:50;;;;;;;35.42;17.33;;;0.50;99.90;;;;;;3561054;40;20092;-63
2021/04/13 04:14:20;;;;;;;37.70;18.88;;;0.50;99.90;;;;;;3560839;40;20052;-63
2021/04/13 04:16:46;;;;;;;33.78;18.08;;;0.60;99.90;;;;;;3560707;40;20043;-63
2021/04/13 04:19:13;;;;;;;38.70;18.48;;;0.60;99.90;;;;;;3560938;40;20037;-63
2021/04/13 04:21:45;;;;;;;38.72;19.83;;;0.60;99.90;;;;;;3562769;40;20055;-63
2021/04/13 04:24:16;;;;;;;43.53;20.75;;;0.60;99.90;;;;;;3561181;40;20049;-63
2021/04/13 04:27:17;;;;;;;42.25;20.30;;;0.60;99.90;;;;;;3562085;40;20041;-63
2021/04/13 04:29:46;;;;;;;37.47;19.70;;;0.70;99.90;;;;;;3562986;40;20164;-64
2021/04/13 04:32:32;;;;;;;39.70;19.92;;;0.60;99.90;;;;;;3564344;40;20045;-63
2021/04/13 04:35:01;;;;;;;35.42;19.27;;;0.60;99.90;;;;;;3558596;40;20043;-62
2021/04/13 04:37:28;;;;;;;36.65;19.35;;;0.70;99.90;;;;;;3556833;40;20033;-64
2021/04/13 04:40:13;;;;;;;40.85;20.67;;;0.70;99.90;;;;;;3562469;40;20060;-64
2021/04/13 04:42:50;;;;;;;35.10;18.80;;;0.70;99.90;;;;;;3564035;40;20033;-61
2021/04/13 04:45:38;;;;;;;34.58;18.63;;;0.80;99.90;;;;;;3562844;40;20796;-64
2021/04/13 04:48:19;;;;;;;34.03;18.15;;;0.90;99.90;;;;;;3562798;40;20784;-64
2021/04/13 04:50:46;;;;;;;33.47;18.48;;;1.00;99.90;;;;;;3562393;40;20779;-64
2021/04/13 04:53:13;;;;;;;32.80;17.65;;;1.00;99.90;;;;;;3562481;40;20080;-64
2021/04/13 04:55:39;;;;;;;34.58;17.20;;;1.00;99.90;;;;;;3564238;40;20045;-64
2021/04/13 04:58:05;;;;;;;35.15;17.00;;;1.10;99.90;;;;;;3562597;40;20041;-64
2021/04/13 05:00:30;;;;;;;38.50;19.58;;;1.10;99.90;;;;;;3562277;40;20477;-64
2021/04/13 05:02:56;;;;;;;38.78;18.70;;;1.10;99.90;;;;;;3561196;40;20045;-64
2021/04/13 05:05:21;;;;;;;31.15;16.65;;;1.10;99.90;;;;;;3564587;40;20030;-62
2021/04/13 05:07:47;;;;;;;33.30;17.45;;;1.10;99.90;;;;;;3561860;40;20037;-62
2021/04/13 05:10:13;;;;;;;30.27;15.55;;;1.10;99.90;;;;;;3563224;40;20683;-61
2021/04/13 05:12:39;;;;;;;29.70;15.93;;;1.20;99.90;;;;;;3562296;40;20036;-62
2021/04/13 05:15:05;;;;;;;29.05;15.88;;;1.20;99.90;;;;;;3566411;40;20137;-61
2021/04/13 05:17:31;;;;;;;26.23;15.02;;;1.20;99.90;;;;;;3560802;40;20182;-61
2021/04/13 05:19:57;;;;;;;28.55;15.32;;;1.40;99.90;;;;;;3564163;40;20486;-62
2021/04/13 05:22:22;;;;;;;28.60;14.43;;;1.40;99.90;;;;;;3566414;40;20041;-61
2021/04/13 05:24:48;;;;;;;26.67;14.75;;;1.40;99.90;;;;;;3561467;40;20738;-61
2021/04/13 05:27:14;;;;;;;23.10;13.82;;;1.60;99.90;;;;;;3560007;40;20553;-61
2021/04/13 05:29:39;;;;;;;24.95;12.95;;;1.60;99.90;;;;;;3562602;40;20062;-61
2021/04/13 05:32:06;;;;;;;24.73;13.32;;;1.80;99.90;;;;;;3561526;40;20615;-61
2021/04/13 05:34:31;;;;;;;29.60;14.77;;;1.80;99.90;;;;;;3564654;40;20029;-61
2021/04/13 05:36:57;;;;;;;24.35;12.85;;;1.70;99.90;;;;;;3561738;40;20040;-64
2021/04/13 05:39:23;;;;;;;24.10;12.85;;;1.80;99.90;;;;;;3563539;40;20045;-64
2021/04/13 05:41:50;;;;;;;21.77;12.15;;;1.80;99.90;;;;;;3562981;40;20093;-64
2021/04/13 05:44:20;;;;;;;19.85;11.85;;;1.90;99.90;;;;;;3562002;40;20043;-64
2021/04/13 05:46:46;;;;;;;23.35;12.07;;;2.00;99.90;;;;;;3563108;40;20029;-64
2021/04/13 05:49:11;;;;;;;26.17;12.20;;;2.10;99.90;;;;;;3562374;40;20053;-64
2021/04/13 05:51:38;;;;;;;21.58;11.60;;;2.20;99.90;;;;;;3562543;40;20105;-64
2021/04/13 05:54:04;;;;;;;19.83;11.52;;;2.20;99.90;;;;;;3562042;40;20030;-64
2021/04/13 05:56:36;;;;;;;21.02;11.32;;;2.20;99.90;;;;;;3564337;40;20036;-65
2021/04/13 05:59:04;;;;;;;20.30;11.05;;;2.30;99.90;;;;;;3561748;40;20041;-64
2021/04/13 06:01:31;;;;;;;17.63;10.93;;;2.40;99.90;;;;;;3563577;40;20037;-64
2021/04/13 06:03:57;;;;;;;19.98;10.68;;;2.40;99.90;;;;;;3562385;40;20045;-64
2021/04/13 06:06:23;;;;;;;19.38;10.95;;;2.40;99.90;;;;;;3561184;40;20508;-64
2021/04/13 06:08:49;;;;;;;19.95;10.80;;;2.50;99.90;;;;;;3562265;40;20096;-64
2021/04/13 06:11:30;;;;;;;21.02;10.50;;;2.60;99.90;;;;;;3560848;40;20029;-64
2021/04/13 06:13:57;;;;;;;22.23;11.23;;;2.70;99.90;;;;;;3561915;40;20049;-64
2021/04/13 06:16:27;;;;;;;19.85;10.85;;;2.70;99.90;;;;;;3562678;40;20636;-64
2021/04/13 06:18:53;;;;;;;22.55;11.20;;;2.70;99.90;;;;;;3558367;40;20030;-64
2021/04/13 06:21:18;;;;;;;19.60;10.10;;;2.80;99.90;;;;;;3561441;40;20029;-63
2021/04/13 06:23:44;;;;;;;16.98;9.27;;;2.90;99.90;;;;;;3560893;40;20034;-64
2021/04/13 06:26:10;;;;;;;20.35;10.95;;;3.00;99.90;;;;;;3562343;40;20139;-62
2021/04/13 06:28:35;;;;;;;21.75;10.90;;;3.00;99.90;;;;;;3563681;40;20146;-62
2021/04/13 06:31:01;;;;;;;21.00;9.65;;;3.10;99.90;;;;;;3561106;40;20150;-62
2021/04/13 06:33:28;;;;;;;19.58;10.25;;;3.30;99.90;;;;;;3562592;40;20049;-62
2021/04/13 06:35:59;;;;;;;17.52;8.93;;;3.30;99.90;;;;;;3562330;40;20053;-61
2021/04/13 06:38:26;;;;;;;19.83;10.50;;;3.40;99.90;;;;;;3560840;40;20790;-61
2021/04/13 06:41:06;;;;;;;16.80;9.63;;;3.40;99.90;;;;;;3561044;40;20044;-61
2021/04/13 06:43:41;;;;;;;20.67;9.00;;;3.40;99.90;;;;;;3563669;40;20034;-61
2021/04/13 06:46:06;;;;;;;19.85;9.48;;;3.50;99.90;;;;;;3559960;40;20871;-61
2021/04/13 06:48:35;;;;;;;19.40;9.00;;;3.60;99.90;;;;;;3565515;40;20044;-62
2021/04/13 06:51:30;;;;;;;21.73;9.85;;;3.70;99.90;;;;;;3561673;40;20030;-62
2021/04/13 06:54:27;;;;;;;16.60;9.27;;;3.90;99.90;;;;;;3563094;40;20096;-62
2021/04/13 06:57:11;;;;;;;17.80;8.80;;;4.00;99.90;;;;;;3562502;40;20901;-64
2021/04/13 07:00:07;;;;;;;15.20;8.50;;;4.20;99.90;;;;;;3563210;40;20029;-64
2021/04/13 07:02:49;;;;;;;20.95;9.45;;;4.30;99.90;;;;;;3573588;40;20037;-64
2021/04/13 07:05:22;;;;;;;14.88;7.72;;;4.30;99.90;;;;;;3561443;40;20037;-64
2021/04/13 07:08:16;;;;;;;16.88;7.72;;;4.40;99.90;;;;;;3560806;40;20048;-64
2021/04/13 07:10:49;;;;;;;13.88;7.70;;;4.60;99.90;;;;;;3562602;40;20029;-64
2021/04/13 07:13:20;;;;;;;19.65;7.90;;;4.60;99.90;;;;;;3561356;40;20038;-64
2021/04/13 07:15:50;;;;;;;16.50;8.02;;;4.70;99.90;;;;;;3559468;40;20038;-64
2021/04/13 07:18:22;;;;;;;16.42;7.25;;;4.70;99.90;;;;;;3562312;40;20060;-64
2021/04/13 07:20:57;;;;;;;24.70;7.65;;;4.80;99.90;;;;;;3562107;40;20444;-61
2021/04/13 07:23:46;;;;;;;15.63;7.50;;;4.90;99.90;;;;;;3563086;40;20425;-62
2021/04/13 07:26:22;;;;;;;16.23;7.45;;;4.90;99.90;;;;;;3559385;40;20056;-61
2021/04/13 07:29:14;;;;;;;17.98;8.02;;;5.00;99.90;;;;;;3563010;40;20067;-62
2021/04/13 07:32:01;;;;;;;14.93;7.60;;;5.10;99.90;;;;;;3562534;40;20056;-62
2021/04/13 07:34:28;;;;;;;14.18;7.30;;;5.20;99.90;;;;;;3558309;40;20041;-62
2021/04/13 07:37:12;;;;;;;16.05;6.22;;;5.60;99.90;;;;;;3562282;40;20069;-64
2021/04/13 07:39:40;;;;;;;13.73;7.13;;;5.60;99.90;;;;;;3561146;40;20053;-64
2021/04/13 07:42:13;;;;;;;21.95;6.45;;;5.80;99.90;;;;;;3564387;40;20038;-65
2021/04/13 07:44:49;;;;;;;18.83;6.55;;;5.90;99.90;;;;;;3563467;40;20049;-65
2021/04/13 07:47:36;;;;;;;10.45;5.25;;;6.10;99.90;;;;;;3565034;40;20033;-62
2021/04/13 07:50:04;;;;;;;11.93;5.85;;;6.20;99.90;;;;;;3566259;40;20045;-61
2021/04/13 07:52:41;;;;;;;15.25;5.55;;;6.40;99.90;;;;;;3563441;40;20053;-64
2021/04/13 07:55:44;;;;;;;11.77;4.30;;;6.40;99.90;;;;;;3563555;40;20536;-62
2021/04/13 07:58:45;;;;;;;13.55;4.75;;;6.20;99.90;;;;;;3562192;40;20061;-61
2021/04/13 08:01:11;;;;;;;10.57;3.85;;;6.20;99.90;;;;;;3567304;40;20049;-62
2021/04/13 08:03:37;;;;;;;9.65;3.85;;;6.30;99.90;;;;;;3559958;40;20033;-62
2021/04/13 08:06:26;;;;;;;9.40;4.28;;;6.30;99.90;;;;;;3564799;40;20056;-62
2021/04/13 08:09:19;;;;;;;8.07;4.00;;;6.40;99.90;;;;;;3556751;40;20709;-62
2021/04/13 08:12:04;;;;;;;13.30;3.97;;;6.50;99.90;;;;;;3559592;40;20608;-62
2021/04/13 08:14:39;;;;;;;17.63;3.97;;;6.60;99.90;;;;;;3563464;40;20719;-62
2021/04/13 08:17:16;;;;;;;11.40;4.20;;;7.10;99.90;;;;;;3563526;40;20038;-62
2021/04/13 08:19:43;;;;;;;8.05;3.85;;;7.40;99.90;;;;;;3574012;40;20041;-62
2021/04/13 08:22:15;;;;;;;11.38;4.75;;;7.30;99.90;;;;;;3560038;40;20039;-62
2021/04/13 08:24:50;;;;;;;11.20;4.40;;;7.30;99.90;;;;;;3563632;40;20500;-62
2021/04/13 08:27:42;;;;;;;14.95;3.85;;;7.40;99.90;;;;;;3563577;40;20057;-62
2021/04/13 08:30:26;;;;;;;14.85;4.40;;;7.30;99.90;;;;;;3564422;40;20033;-62
2021/04/13 08:33:23;;;;;;;14.48;3.67;;;7.20;99.90;;;;;;3563759;40;20053;-62
2021/04/13 08:36:34;;;;;;;12.23;3.80;;;7.10;99.90;;;;;;3565563;40;20541;-62
2021/04/13 08:39:18;;;;;;;15.85;4.15;;;7.10;99.90;;;;;;3545000;40;20057;-62
2021/04/13 08:41:55;;;;;;;10.85;3.75;;;7.20;99.90;;;;;;3562292;40;20033;-62
2021/04/13 08:44:37;;;;;;;11.23;3.35;;;7.10;99.90;;;;;;3564797;40;20033;-61
2021/04/13 08:47:17;;;;;;;12.88;4.28;;;7.30;99.90;;;;;;3562079;40;20064;-62
2021/04/13 08:49:49;;;;;;;9.98;4.03;;;7.50;99.90;;;;;;3560860;40;20044;-62
2021/04/13 08:52:16;;;;;;;12.23;4.45;;;7.60;99.90;;;;;;3563248;40;20049;-61
2021/04/13 08:54:46;;;;;;;12.75;4.13;;;8.10;99.90;;;;;;3561171;40;20138;-62
2021/04/13 08:57:18;;;;;;;11.05;4.05;;;8.50;99.90;;;;;;3562186;40;21020;-62
2021/04/13 08:59:45;;;;;;;11.65;3.83;;;8.60;99.90;;;;;;3564733;40;20043;-62
2021/04/13 09:02:11;;;;;;;8.63;3.53;;;8.50;99.90;;;;;;3563097;40;20040;-62
2021/04/13 09:04:37;;;;;;;7.60;3.40;;;8.40;99.90;;;;;;3561461;40;20034;-64
2021/04/13 09:07:30;;;;;;;15.57;3.83;;;8.30;99.90;;;;;;3563752;40;20032;-64
2021/04/13 09:10:28;;;;;;;12.18;3.67;;;8.30;99.90;;;;;;3561894;40;20042;-65
2021/04/13 09:13:11;;;;;;;10.98;3.80;;;8.00;99.90;;;;;;3562995;40;20036;-65
2021/04/13 09:15:56;;;;;;;13.15;4.57;;;7.70;99.90;;;;;;3562178;40;20042;-64
2021/04/13 09:18:45;;;;;;;12.18;3.15;;;7.80;99.90;;;;;;3562194;40;20038;-65
2021/04/13 09:21:29;;;;;;;8.90;2.88;;;8.00;99.90;;;;;;3573800;40;20077;-64
2021/04/13 09:24:19;;;;;;;10.02;2.83;;;8.00;99.90;;;;;;3562098;40;20044;-64
2021/04/13 09:27:01;;;;;;;12.60;3.95;;;8.00;99.90;;;;;;3559884;40;20040;-65
2021/04/13 09:29:45;;;;;;;16.70;5.03;;;8.20;99.90;;;;;;3563887;40;20037;-64
2021/04/13 09:32:22;;;;;;;16.13;3.88;;;8.20;99.90;;;;;;3561376;40;20033;-65
2021/04/13 09:34:48;;;;;;;14.70;3.17;;;8.10;99.90;;;;;;3559758;40;20096;-63
2021/04/13 09:37:37;;;;;;;8.65;3.13;;;8.20;99.90;;;;;;3563365;40;20032;-63
2021/04/13 09:40:22;;;;;;;12.73;3.33;;;8.60;99.90;;;;;;3562260;40;20037;-63
2021/04/13 09:43:26;;;;;;;9.60;3.47;;;8.70;99.90;;;;;;3562195;40;20667;-62
2021/04/13 09:46:17;;;;;;;11.75;2.92;;;9.10;99.90;;;;;;3560464;40;20053;-61
2021/04/13 09:49:17;;;;;;;10.85;3.28;;;9.70;99.90;;;;;;3560767;40;20045;-62
2021/04/13 09:51:49;;;;;;;10.70;3.40;;;9.80;98.50;;;;;;3557758;40;20493;-62
2021/04/13 09:55:02;;;;;;;9.85;2.38;;;9.40;98.30;;;;;;3563107;40;20044;-62
2021/04/13 09:57:40;;;;;;;10.75;2.78;;;9.30;98.40;;;;;;3531280;40;20745;-62
2021/04/13 10:00:42;;;;;;;8.52;2.45;;;9.60;98.40;;;;;;3532653;40;20705;-63
2021/04/13 10:03:46;;;;;;;10.85;4.28;;;9.40;98.00;;;;;;3556906;40;20041;-63
2021/04/13 10:06:14;;;;;;;7.63;2.78;;;9.20;98.80;;;;;;3540679;40;20034;-61
2021/04/13 10:08:47;;;;;;;11.45;3.15;;;9.40;99.00;;;;;;3558526;40;20029;-63
2021/04/13 10:11:29;;;;;;;12.70;3.08;;;9.70;98.20;;;;;;3560821;40;20162;-65
2021/04/13 10:14:08;;;;;;;19.02;3.72;;;9.70;98.50;;;;;;3562489;40;20049;-63
2021/04/13 10:17:01;;;;;;;9.57;2.80;;;9.20;98.90;;;;;;3563906;40;20060;-62
2021/04/13 10:19:49;;;;;;;10.45;4.05;;;9.00;99.90;;;;;;3573294;40;20040;-62
2021/04/13 10:22:33;;;;;;;9.13;2.53;;;9.20;97.90;;;;;;3562190;40;20057;-63
2021/04/13 10:25:20;;;;;;;10.13;2.17;;;9.10;98.10;;;;;;3562491;40;20037;-63
2021/04/13 10:27:57;;;;;;;11.13;2.58;;;9.20;98.20;;;;;;3559947;40;20060;-63
2021/04/13 10:30:46;;;;;;;10.02;2.83;;;9.30;98.40;;;;;;3561185;40;20098;-63
2021/04/13 10:33:21;;;;;;;10.25;2.63;;;10.00;97.10;;;;;;3559387;40;20049;-63
2021/04/13 10:36:08;;;;;;;11.52;3.22;;;10.20;96.50;;;;;;3560561;40;20418;-61
2021/04/13 10:39:04;;;;;;;10.77;2.10;;;10.30;95.60;;;;;;3562116;40;20363;-60
2021/04/13 10:42:07;;;;;;;9.63;1.75;;;10.80;94.60;;;;;;3570909;40;20049;-61
2021/04/13 10:45:07;;;;;;;8.13;1.65;;;11.30;91.40;;;;;;3562954;40;20056;-64
2021/04/13 10:47:54;;;;;;;20.73;3.40;;;11.30;85.00;;;;;;3558416;40;20072;-61
2021/04/13 10:50:44;;;;;;;12.13;2.45;;;11.20;88.40;;;;;;3561926;40;20138;-62
2021/04/13 10:53:16;;;;;;;10.25;2.22;;;10.80;88.80;;;;;;3565347;40;20037;-63
2021/04/13 10:56:20;;;;;;;7.90;1.90;;;10.60;90.40;;;;;;3563143;40;20131;-62
2021/04/13 10:59:14;;;;;;;6.78;1.90;;;10.30;90.70;;;;;;3562639;40;20045;-63
2021/04/13 11:02:04;;;;;;;13.55;2.13;;;10.00;93.80;;;;;;3556991;40;20041;-63
2021/04/13 11:04:55;;;;;;;7.15;1.90;;;9.90;94.20;;;;;;3560393;40;20051;-63
2021/04/13 11:07:45;;;;;;;11.40;2.35;;;10.30;95.40;;;;;;3562265;40;20130;-62
2021/04/13 11:10:44;;;;;;;9.48;1.90;;;11.00;90.50;;;;;;3562877;40;20040;-62
2021/04/13 11:13:35;;;;;;;10.77;2.10;;;11.50;88.90;;;;;;3558336;40;20049;-62
2021/04/13 11:16:42;;;;;;;5.22;2.03;;;11.30;85.10;;;;;;3560405;40;20037;-65
2021/04/13 11:19:08;;;;;;;5.07;1.67;;;11.20;85.30;;;;;;3564794;40;20385;-65
2021/04/13 11:21:55;;;;;;;12.70;1.95;;;10.70;78.80;;;;;;3563885;40;20051;-65
2021/04/13 11:24:58;;;;;;;7.82;1.65;;;10.50;84.00;;;;;;3560908;40;20030;-65
2021/04/13 11:27:29;;;;;;;11.45;2.63;;;10.10;86.30;;;;;;3563340;40;20770;-65
2021/04/13 11:30:17;;;;;;;6.97;1.92;;;9.80;89.70;;;;;;3566898;40;20088;-65
2021/04/13 11:33:17;;;;;;;7.47;1.73;;;9.60;92.30;;;;;;3560864;40;20052;-65
2021/04/13 11:35:52;;;;;;;13.27;2.03;;;10.00;94.60;;;;;;3562851;40;20409;-65
2021/04/13 11:38:43;;;;;;;8.90;2.22;;;10.50;91.60;;;;;;3570790;40;20049;-65
2021/04/13 11:41:20;;;;;;;8.90;2.40;;;11.30;88.60;;;;;;3562061;40;20029;-64
2021/04/13 11:43:53;;;;;;;6.32;1.88;;;11.60;82.30;;;;;;3558785;40;20069;-65
2021/04/13 11:46:26;;;;;;;6.97;2.08;;;11.40;82.30;;;;;;3560862;40;20047;-65
2021/04/13 11:49:07;;;;;;;5.13;1.67;;;11.10;84.30;;;;;;3561311;40;20442;-65
2021/04/13 11:51:42;;;;;;;7.82;1.63;;;11.10;85.10;;;;;;3562252;40;20030;-66
2021/04/13 11:54:35;;;;;;;9.48;1.95;;;11.10;86.20;;;;;;3562591;40;20034;-67
2021/04/13 11:57:18;;;;;;;10.75;1.42;;;11.60;80.90;;;;;;3558988;40;20531;-67
2021/04/13 12:00:10;;;;;;;10.02;1.50;;;11.90;73.20;;;;;;3570042;40;20057;-63
2021/04/13 12:02:43;;;;;;;5.75;1.45;;;12.00;72.50;;;;;;3565231;40;20092;-63
2021/04/13 12:05:37;;;;;;;7.13;1.63;;;11.80;75.50;;;;;;3562860;40;20743;-63
2021/04/13 12:08:04;;;;;;;14.20;1.75;;;11.60;71.40;;;;;;3562824;40;20104;-63
2021/04/13 12:10:30;;;;;;;6.55;1.25;;;11.40;75.90;;;;;;3568940;40;20029;-63
2021/04/13 12:13:19;;;;;;;5.55;1.35;;;11.20;74.00;;;;;;3558500;40;20052;-63
2021/04/13 12:15:48;;;;;;;8.40;2.70;;;11.00;76.20;;;;;;3558923;40;20866;-63
2021/04/13 12:18:35;;;;;;;9.07;1.92;;;10.70;77.30;;;;;;3560159;40;20139;-63
2021/04/13 12:21:24;;;;;;;6.78;1.60;;;10.70;78.50;;;;;;3559501;40;20086;-63
2021/04/13 12:23:54;;;;;;;6.82;1.38;;;10.70;76.00;;;;;;3563853;40;20092;-63
2021/04/13 12:26:38;;;;;;;6.43;1.35;;;10.60;79.10;;;;;;3564144;40;20556;-63
2021/04/13 12:29:22;;;;;;;8.52;1.80;;;10.50;80.80;;;;;;3572871;40;20037;-63
2021/04/13 12:32:10;;;;;;;10.05;1.80;;;10.50;80.50;;;;;;3565197;40;20649;-63
2021/04/13 12:35:00;;;;;;;9.73;2.08;;;10.30;81.00;;;;;;3562427;40;20053;-62
2021/04/13 12:37:45;;;;;;;9.25;1.38;;;10.40;83.00;;;;;;3560124;40;20052;-62
2021/04/13 12:40:20;;;;;;;8.27;1.45;;;10.40;78.70;;;;;;3564520;40;20049;-62
2021/04/13 12:43:10;;;;;;;7.55;1.55;;;10.40;79.30;;;;;;3563894;40;20049;-63
2021/04/13 12:45:46;;;;;;;12.18;2.05;;;10.30;80.30;;;;;;3562823;40;20068;-63
2021/04/13 12:48:14;;;;;;;10.02;2.00;;;10.30;83.90;;;;;;3564110;40;20033;-63
2021/04/13 12:50:43;;;;;;;10.32;3.22;;;10.60;80.50;;;;;;3559444;40;20116;-63
2021/04/13 12:53:17;;;;;;;11.50;2.03;;;10.70;80.40;;;;;;3562285;40;20040;-63
2021/04/13 12:55:44;;;;;;;10.05;1.52;;;12.10;75.90;;;;;;3565414;40;20138;-63
2021/04/13 12:58:18;;;;;;;9.18;1.52;;;11.70;77.10;;;;;;3570465;40;20037;-63
2021/04/13 13:00:48;;;;;;;7.38;1.52;;;11.80;76.70;;;;;;3564505;40;20044;-63
2021/04/13 13:03:29;;;;;;;9.70;1.52;;;12.40;73.30;;;;;;3571176;40;20025;-63
2021/04/13 13:05:55;;;;;;;8.10;1.38;;;13.10;70.00;;;;;;3564586;40;20040;-63
2021/04/13 13:08:29;;;;;;;7.72;2.35;;;13.80;64.80;;;;;;3562051;40;20257;-63
2021/04/13 13:11:10;;;;;;;10.43;4.72;;;14.10;62.60;;;;;;3563429;40;20778;-63
2021/04/13 13:13:38;;;;;;;4.95;1.65;;;14.50;61.10;;;;;;3565804;40;20158;-63
2021/04/13 13:16:17;;;;;;;12.25;7.45;;;15.00;57.20;;;;;;3563298;40;20035;-63
2021/04/13 13:18:47;;;;;;;5.38;1.50;;;14.70;54.40;;;;;;3566748;40;20044;-62
2021/04/13 13:21:16;;;;;;;5.55;1.90;;;13.60;56.80;;;;;;3564164;40;20481;-62
2021/04/13 13:23:49;;;;;;;7.90;2.65;;;12.50;60.80;;;;;;3562809;40;20071;-63
2021/04/13 13:26:25;;;;;;;7.88;2.70;;;11.80;65.40;;;;;;3565026;40;20029;-63
2021/04/13 13:28:51;;;;;;;6.57;2.15;;;12.40;66.20;;;;;;3561912;40;20735;-61
2021/04/13 13:31:34;;;;;;;15.32;6.63;;;13.30;62.10;;;;;;3564049;40;20040;-61
2021/04/13 13:34:13;;;;;;;5.68;1.88;;;14.10;59.00;;;;;;3561257;40;20048;-61
2021/04/13 13:36:41;;;;;;;9.50;1.50;;;14.30;56.80;;;;;;3564488;40;20047;-60